Time;durP1;ratioP1;P1;durP2;ratioP2;P2;SDS_P1;SDS_P2;PMS_P1;PMS_P2;Temp;Humidity;BMP_temperature;BMP_pressure;BME280_temperature;BME280_humidity;BME280_pressure;Samples;Min_cycle;Max_cycle;Signal;HPM_P1;HPM_P2
2023/12/04 00:02:24;;;;;;;;;;;2.10;54.40;;;0.02;60.07;101836.22;12249562;19;19919;-88
2023/12/04 00:06:26;;;;;;;;;;;1.80;54.30;;;-0.05;59.94;101832.75;12258336;19;19914;-88
2023/12/04 00:10:27;;;;;;;;;;;1.80;54.30;;;-0.15;60.02;101829.25;12253473;19;19927;-88
2023/12/04 00:14:29;;;;;;;;;;;1.90;54.40;;;-0.16;60.12;101832.69;12256888;19;19915;-88
2023/12/04 00:18:30;;;;;;;;;;;1.50;54.60;;;-0.60;59.96;101774.19;12257285;19;19914;-88
2023/12/04 00:22:32;;;;;;;;;;;1.50;54.30;;;-0.29;60.00;101818.03;12253136;19;19918;-88
2023/12/04 00:26:33;;;;;;;;;;;1.40;54.30;;;-0.86;59.91;101716.69;12258498;19;19921;-88
2023/12/04 00:30:35;;;;;;;;;;;1.40;54.30;;;-0.68;59.96;101763.00;12254054;19;19918;-88
2023/12/04 00:34:37;;;;;;;;;;;1.30;54.20;;;-0.48;60.05;101802.50;12255993;19;19922;-88
2023/12/04 00:38:38;;;;;;;;;;;1.30;54.20;;;-0.88;59.86;101746.59;12254907;19;19915;-88
2023/12/04 00:42:40;;;;;;;;;;;1.20;54.10;;;-0.70;60.04;101795.50;12254076;19;19923;-88
2023/12/04 00:46:42;;;;;;;;;;;1.10;54.10;;;-0.61;59.92;101825.47;12253012;19;20015;-88
2023/12/04 00:50:43;;;;;;;;;;;1.10;54.20;;;-0.58;59.96;101828.06;12252434;19;19918;-87
2023/12/04 00:54:45;;;;;;;;;;;1.40;54.40;;;-0.62;59.93;101834.88;12253703;19;19982;-88
2023/12/04 00:58:46;;;;;;;;;;;1.30;54.40;;;-0.98;59.91;101777.28;12254898;19;19982;-88
2023/12/04 01:02:48;;;;;;;;;;;1.40;54.80;;;-0.73;60.00;101824.53;12251095;19;19925;-88
2023/12/04 01:06:49;;;;;;;;;;;1.00;54.30;;;-0.68;59.90;101833.09;12255172;19;19919;-88
2023/12/04 01:10:51;;;;;;;;;;;1.00;54.30;;;-0.72;59.88;101835.66;12253277;19;19915;-88
2023/12/04 01:14:52;;;;;;;;;;;1.00;54.20;;;-0.95;59.96;101790.13;12252248;19;19919;-88
2023/12/04 01:18:54;;;;;;;;;;;0.90;54.10;;;-1.34;59.89;101745.31;12253291;19;19923;-88
2023/12/04 01:22:56;;;;;;;;;;;1.10;54.20;;;-0.86;59.96;101826.94;12251717;19;19915;-88
2023/12/04 01:26:57;;;;;;;;;;;1.10;54.10;;;-0.93;59.83;101820.91;12253973;19;19910;-88
2023/12/04 01:30:58;;;;;;;;;;;0.80;54.00;;;-1.01;59.93;101808.00;12249209;19;19929;-88
2023/12/04 01:35:00;;;;;;;;;;;0.80;54.00;;;-1.31;59.93;101762.44;12254518;19;19918;-88
2023/12/04 01:39:03;;;;;;;;;;;0.80;54.00;;;-0.98;59.95;101817.44;12252067;19;20261;-88
2023/12/04 01:43:05;;;;;;;;;;;0.70;54.00;;;-1.00;59.86;101817.44;12249862;19;19935;-88
2023/12/04 01:47:07;;;;;;;;;;;0.70;54.10;;;-1.14;60.02;101789.06;12254418;19;19927;-88
2023/12/04 01:51:09;;;;;;;;;;;1.00;54.10;;;-1.21;59.78;101778.78;12251273;19;19923;-88
2023/12/04 01:55:11;;;;;;;;;;;0.60;54.00;;;-1.21;59.89;101787.31;12252115;19;19926;-88
2023/12/04 01:59:12;;;;;;;;;;;0.80;54.10;;;-1.30;59.84;101782.06;12251280;19;19945;-88
2023/12/04 02:03:14;;;;;;;;;;;0.60;54.00;;;-1.48;59.79;101752.00;12248882;19;19938;-88
2023/12/04 02:07:15;;;;;;;;;;;0.50;53.90;;;-1.63;59.81;101727.09;12253748;19;20294;-88
2023/12/04 02:11:16;;;;;;;;;;;0.40;53.90;;;-1.88;59.94;101695.22;12248943;19;19922;-88
2023/12/04 02:15:18;;;;;;;;;;;0.50;54.00;;;-1.39;59.81;101769.19;12252722;19;19906;-88
2023/12/04 02:19:20;;;;;;;;;;;0.40;54.00;;;-1.75;59.95;101708.19;12246496;19;19926;-89
2023/12/04 02:23:22;;;;;;;;;;;0.30;54.00;;;-1.44;59.87;101760.59;12248818;19;19915;-88
2023/12/04 02:27:28;;;;;;;;;;;0.30;54.00;;;-1.41;59.81;101770.84;12250510;19;20004;-88
2023/12/04 02:31:31;;;;;;;;;;;0.30;54.00;;;-1.46;59.79;101763.16;12246390;19;20090;-88
2023/12/04 02:35:35;;;;;;;;;;;0.30;54.00;;;-1.53;59.88;101756.22;12249455;19;19907;-88
2023/12/04 02:39:37;;;;;;;;;;;0.20;53.90;;;-1.57;59.92;101755.34;12246874;19;19919;-88
2023/12/04 02:43:38;;;;;;;;;;;0.20;54.00;;;-1.54;59.79;101769.00;12240699;19;19930;-88
2023/12/04 02:47:40;;;;;;;;;;;0.40;54.10;;;-1.54;59.75;101762.16;12250098;19;19907;-88
2023/12/04 02:51:42;;;;;;;;;;;0.30;54.00;;;-1.68;59.84;101745.78;12246690;19;19932;-88
2023/12/04 02:55:43;;;;;;;;;;;0.10;53.90;;;-1.75;59.69;101733.78;12246069;19;19910;-88
2023/12/04 02:59:45;;;;;;;;;;;0.10;53.80;;;-1.77;59.75;101735.47;12248265;19;19910;-88
2023/12/04 03:03:47;;;;;;;;;;;0.20;53.80;;;-1.90;59.75;101732.75;12244241;19;19928;-88
2023/12/04 03:07:48;;;;;;;;;;;0.00;53.60;;;-2.13;59.63;101698.31;12249570;19;19962;-88
2023/12/04 03:11:50;;;;;;;;;;;-0.10;53.60;;;-2.28;59.68;101673.41;12255149;19;19923;-88
2023/12/04 03:15:51;;;;;;;;;;;-0.10;53.60;;;-2.00;59.74;101728.34;12259911;19;19914;-88
2023/12/04 03:19:52;;;;;;;;;;;-0.20;53.50;;;-2.12;59.62;101718.81;12257484;19;19923;-88
2023/12/04 03:23:54;;;;;;;;;;;-0.20;53.50;;;-2.04;59.88;101737.69;12261460;19;19914;-88
2023/12/04 03:27:56;;;;;;;;;;;0.00;53.60;;;-2.07;59.80;101724.00;12260921;19;19914;-88
2023/12/04 03:31:57;;;;;;;;;;;-0.20;53.60;;;-2.34;59.66;101691.25;12254826;19;19919;-88
2023/12/04 03:35:59;;;;;;;;;;;-0.40;53.60;;;-2.30;59.84;101700.66;12260349;19;19944;-88
2023/12/04 03:40:00;;;;;;;;;;;-0.40;53.60;;;-2.48;59.84;101668.03;12258074;19;19915;-88
2023/12/04 03:44:02;;;;;;;;;;;-0.40;53.60;;;-2.25;59.83;101704.16;12259106;19;19919;-88
2023/12/04 03:48:03;;;;;;;;;;;-0.40;53.70;;;-2.26;59.72;101705.84;12259826;19;20253;-88
2023/12/04 03:52:05;;;;;;;;;;;-0.40;53.70;;;-2.30;59.90;101708.34;12253851;19;19923;-87
2023/12/04 03:56:07;;;;;;;;;;;-0.40;53.70;;;-2.26;59.75;101705.84;12259653;19;19911;-87
2023/12/04 04:00:10;;;;;;;;;;;-0.40;53.80;;;-2.38;59.72;101685.22;12260036;19;19911;-88
2023/12/04 04:04:14;;;;;;;;;;;-0.50;53.70;;;-2.43;59.69;101671.53;12261152;19;20403;-87
2023/12/04 04:08:15;;;;;;;;;;;-0.40;53.70;;;-2.43;59.70;101671.53;12262251;19;20323;-88
2023/12/04 04:12:17;;;;;;;;;;;-0.50;53.60;;;-2.69;59.68;101638.78;12259601;19;19921;-88
2023/12/04 04:16:19;;;;;;;;;;;-0.50;53.60;;;-2.42;59.79;101678.34;12261705;19;20330;-88
2023/12/04 04:20:20;;;;;;;;;;;-0.50;53.60;;;-2.95;59.73;101589.00;12258329;19;19935;-88
2023/12/04 04:24:22;;;;;;;;;;;-0.60;53.60;;;-2.50;59.77;101669.72;12260334;19;19915;-88
2023/12/04 04:28:23;;;;;;;;;;;-0.60;53.70;;;-2.68;59.95;101637.94;12261253;19;19939;-88
2023/12/04 04:32:25;;;;;;;;;;;-0.60;53.70;;;-2.39;59.81;101692.88;12256738;19;19906;-89
2023/12/04 04:36:26;;;;;;;;;;;-0.60;53.80;;;-2.68;59.97;101645.59;12261780;19;19914;-88
2023/12/04 04:40:28;;;;;;;;;;;-0.50;54.10;;;-2.37;59.93;101693.75;12255940;19;19922;-88
2023/12/04 04:44:29;;;;;;;;;;;-0.50;53.80;;;-2.66;60.00;101643.06;12260569;19;19961;-88
2023/12/04 04:48:31;;;;;;;;;;;-0.50;53.90;;;-2.53;59.88;101665.41;12259466;19;19911;-88
2023/12/04 04:52:32;;;;;;;;;;;-0.30;53.90;;;-2.45;59.80;101668.94;12258151;19;19923;-87
2023/12/04 04:56:34;;;;;;;;;;;-0.60;53.70;;;-2.56;60.08;101649.19;12258676;19;19915;-88
2023/12/04 05:00:36;;;;;;;;;;;-0.60;53.70;;;-2.78;59.79;101620.78;12253304;19;20080;-88
2023/12/04 05:04:37;;;;;;;;;;;-0.60;53.80;;;-2.76;59.86;101634.41;12257365;19;19951;-88
2023/12/04 05:08:39;;;;;;;;;;;-0.60;53.80;;;-2.43;59.93;101676.66;12256891;19;19918;-88
2023/12/04 05:12:41;;;;;;;;;;;-0.20;53.90;;;-2.64;59.93;101636.28;12255691;19;19918;-88
2023/12/04 05:16:42;;;;;;;;;;;-0.60;53.80;;;-2.58;59.82;101644.03;12254453;19;19950;-88
2023/12/04 05:20:44;;;;;;;;;;;-0.40;53.80;;;-2.52;60.03;101649.22;12254566;19;19911;-88
2023/12/04 05:24:46;;;;;;;;;;;-0.60;53.70;;;-2.60;59.96;101632.06;12257037;19;19931;-88
2023/12/04 05:28:47;;;;;;;;;;;-0.60;53.70;;;-2.64;60.02;101627.78;12255590;19;19974;-88
2023/12/04 05:32:49;;;;;;;;;;;-0.70;53.70;;;-2.57;59.83;101642.34;12251050;19;19915;-88
2023/12/04 05:36:51;;;;;;;;;;;-0.70;53.70;;;-2.58;59.90;101638.94;12256522;19;19924;-88
2023/12/04 05:40:54;;;;;;;;;;;-0.40;53.90;;;-3.16;59.80;101541.88;12251735;19;20350;-88
2023/12/04 05:44:57;;;;;;;;;;;-0.70;53.70;;;-2.59;59.97;101636.34;12255026;19;19948;-88
2023/12/04 05:48:58;;;;;;;;;;;-0.70;53.70;;;-2.57;59.87;101652.56;12254933;19;19966;-88
2023/12/04 05:53:00;;;;;;;;;;;-0.70;53.70;;;-2.73;60.01;101615.69;12255333;19;20329;-88
2023/12/04 05:57:01;;;;;;;;;;;-0.70;54.10;;;-2.71;59.89;101624.25;12256878;19;19978;-88
2023/12/04 06:01:04;;;;;;;;;;;-0.50;53.80;;;-2.66;59.84;101630.28;12252606;19;19943;-88
2023/12/04 06:05:06;;;;;;;;;;;-0.70;53.80;;;-2.60;60.03;101627.81;12253888;19;19921;-88
2023/12/04 06:09:09;;;;;;;;;;;-0.70;53.70;;;-2.77;59.94;101607.13;12254917;19;19914;-88
2023/12/04 06:13:10;;;;;;;;;;;-0.60;53.80;;;-2.79;60.05;101605.41;12254930;19;19978;-88
2023/12/04 06:17:12;;;;;;;;;;;-0.80;53.70;;;-2.81;59.93;101596.84;12252464;19;19921;-88
2023/12/04 06:21:14;;;;;;;;;;;-0.80;53.80;;;-2.82;59.99;101595.13;12250953;19;20253;-88
2023/12/04 06:25:16;;;;;;;;;;;-0.80;53.80;;;-3.03;60.00;101557.38;12251150;19;19936;-87
2023/12/04 06:29:18;;;;;;;;;;;-0.80;53.80;;;-2.77;59.91;101604.59;12252909;19;19923;-88
2023/12/04 06:33:20;;;;;;;;;;;-0.80;53.80;;;-2.96;60.13;101561.72;12250538;19;19922;-87
2023/12/04 06:37:22;;;;;;;;;;;-0.70;53.90;;;-2.97;60.03;101560.88;12252966;19;19922;-88
2023/12/04 06:41:24;;;;;;;;;;;-0.70;54.30;;;-2.60;60.05;101614.19;12251013;19;19919;-88
2023/12/04 06:45:27;;;;;;;;;;;-0.70;54.00;;;-2.68;59.99;101596.19;12253830;19;20326;-88
2023/12/04 06:49:30;;;;;;;;;;;-0.70;54.00;;;-2.59;60.11;101619.31;12250890;19;19925;-88
2023/12/04 06:53:32;;;;;;;;;;;-0.70;54.00;;;-2.63;60.08;101598.81;12247333;19;19924;-88
2023/12/04 06:57:34;;;;;;;;;;;-0.60;54.10;;;-2.76;60.10;101565.41;12249027;19;19919;-88
2023/12/04 07:01:35;;;;;;;;;;;-0.60;54.10;;;-2.52;60.05;101603.19;12243952;19;20259;-88
2023/12/04 07:05:37;;;;;;;;;;;-0.60;54.10;;;-2.43;60.16;101609.28;12251118;19;19919;-88
2023/12/04 07:09:39;;;;;;;;;;;-0.60;54.10;;;-2.42;60.16;101599.06;12245978;19;20591;-91
2023/12/04 07:13:42;;;;;;;;;;;-0.50;54.10;;;-2.48;60.15;101579.41;12250100;19;19907;-88
2023/12/04 07:17:43;;;;;;;;;;;-0.20;54.20;;;-2.78;60.04;101521.09;12248503;19;19923;-87
2023/12/04 07:21:45;;;;;;;;;;;-0.50;54.10;;;-2.61;60.17;101539.19;12242077;19;20351;-88
2023/12/04 07:25:47;;;;;;;;;;;-0.50;54.00;;;-2.80;60.21;101511.69;12246195;19;20265;-88
2023/12/04 07:29:48;;;;;;;;;;;-0.50;54.10;;;-2.47;60.17;101570.03;12244070;19;19915;-87
2023/12/04 07:33:50;;;;;;;;;;;-0.50;54.10;;;-2.44;60.18;101570.06;12246427;19;20326;-87
2023/12/04 07:37:51;;;;;;;;;;;-0.50;54.10;;;-2.41;60.24;101559.00;12247394;19;20019;-89
2023/12/04 07:41:53;;;;;;;;;;;-0.40;54.30;;;-2.43;60.13;101556.44;12242158;19;19923;-88
2023/12/04 07:45:58;;;;;;;;;;;-0.20;54.40;;;-2.32;60.32;101567.66;12242542;19;19914;-88
2023/12/04 07:49:59;;;;;;;;;;;-0.40;54.40;;;-2.19;60.27;101575.44;12242471;19;19951;-89
2023/12/04 07:54:01;;;;;;;;;;;-0.10;54.60;;;-2.30;60.34;101553.16;12243958;19;20338;-89
2023/12/04 07:58:03;;;;;;;;;;;0.00;54.70;;;-2.12;60.40;101570.41;12257979;19;19930;-87
2023/12/04 08:02:05;;;;;;;;;;;0.00;54.70;;;-2.47;60.36;101504.41;12253206;19;19925;-89
2023/12/04 08:06:06;;;;;;;;;;;-0.10;54.70;;;-2.00;60.52;101577.34;12257071;19;19925;-89
2023/12/04 08:10:08;;;;;;;;;;;-0.10;54.70;;;-2.08;60.51;101550.84;12254712;19;20354;-88
2023/12/04 08:14:10;;;;;;;;;;;0.00;54.80;;;-1.93;60.43;101571.47;12255682;19;19915;-88
2023/12/04 08:18:12;;;;;;;;;;;0.00;54.70;;;-1.93;60.65;101555.25;12257001;19;19915;-88
2023/12/04 08:22:13;;;;;;;;;;;0.10;54.80;;;-1.85;60.57;101556.19;12251065;19;20353;-88
2023/12/04 08:26:22;;;;;;;;;;;0.30;54.80;;;-1.71;60.61;101562.28;12256388;19;19923;-88
2023/12/04 08:30:23;;;;;;;;;;;0.20;54.80;;;-1.71;60.50;101556.31;12253133;19;19929;-89
2023/12/04 08:34:25;;;;;;;;;;;0.60;55.00;;;-1.73;60.63;101553.72;12255304;19;19911;-89
2023/12/04 08:38:26;;;;;;;;;;;0.40;54.90;;;-1.96;60.59;101494.66;12254246;19;20334;-88
2023/12/04 08:42:28;;;;;;;;;;;0.40;55.00;;;-1.52;60.64;101565.84;12252089;19;19922;-88
2023/12/04 08:46:30;;;;;;;;;;;0.50;55.00;;;-1.52;60.65;101545.34;12253436;19;19915;-89
2023/12/04 08:50:31;;;;;;;;;;;0.50;55.00;;;-1.89;60.69;101470.84;12252472;19;19939;-88
2023/12/04 08:54:34;;;;;;;;;;;0.60;55.10;;;-1.46;60.72;101535.19;12255886;19;19922;-84
2023/12/04 08:58:35;;;;;;;;;;;0.70;55.20;;;-1.42;60.81;101524.09;12253684;19;19974;-84
2023/12/04 09:02:37;;;;;;;;;;;0.70;55.10;;;-1.16;60.77;101557.59;12248537;19;19923;-84
2023/12/04 09:06:39;;;;;;;;;;;0.80;55.20;;;-1.09;60.71;101563.59;12252993;19;19943;-84
2023/12/04 09:10:40;;;;;;;;;;;0.90;55.20;;;-1.03;60.79;101558.50;12251587;19;20239;-83
2023/12/04 09:14:42;;;;;;;;;;;1.00;55.50;;;-1.07;60.78;101548.25;12254939;19;19917;-84
2023/12/04 09:18:44;;;;;;;;;;;1.00;55.40;;;-0.93;60.77;101567.13;12250255;19;19930;-88
2023/12/04 09:22:45;;;;;;;;;;;1.00;55.30;;;-0.82;60.84;101556.91;12248085;19;19915;-88
2023/12/04 09:26:47;;;;;;;;;;;1.10;55.30;;;-0.83;60.77;101547.53;12252468;19;19919;-88
2023/12/04 09:30:49;;;;;;;;;;;1.20;55.40;;;-0.84;60.84;101525.28;12249457;19;19915;-88
2023/12/04 09:34:50;;;;;;;;;;;1.30;55.40;;;-0.70;60.88;101539.03;12252899;19;20397;-88
2023/12/04 09:38:52;;;;;;;;;;;1.50;55.40;;;-0.63;60.96;101542.47;12252067;19;19926;-89
2023/12/04 09:42:54;;;;;;;;;;;1.70;55.50;;;-0.56;61.01;101533.97;12250233;19;19957;-91
2023/12/04 09:46:56;;;;;;;;;;;1.60;55.50;;;-0.63;60.77;101517.69;12251944;19;19936;-89
2023/12/04 09:50:57;;;;;;;;;;;1.50;55.40;;;-0.53;60.91;101516.88;12247362;19;19911;-91
2023/12/04 09:54:59;;;;;;;;;;;1.60;55.50;;;-0.47;60.94;101509.19;12250331;19;19935;-88
2023/12/04 09:59:01;;;;;;;;;;;1.80;55.70;;;-0.43;61.15;101504.94;12250721;19;19923;-88
2023/12/04 10:03:04;;;;;;;;;;;1.70;55.60;;;-0.22;61.05;101511.78;12244636;19;19919;-88
2023/12/04 10:07:05;;;;;;;;;;;1.70;55.60;;;-0.20;60.91;101510.09;12247344;19;20349;-88
2023/12/04 10:11:07;;;;;;;;;;;2.10;55.80;;;-0.14;60.97;101512.66;12244135;19;20230;-88
2023/12/04 10:15:10;;;;;;;;;;;1.90;55.70;;;-0.08;60.98;101499.88;12250266;19;19950;-88
2023/12/04 10:19:27;;;;;;;;;;;1.90;55.70;;;0.05;61.09;101499.84;12246195;19;19915;-89
2023/12/04 10:23:40;;;;;;;;;;;2.00;55.70;;;0.16;61.03;101505.84;12245675;19;19918;-88
2023/12/04 10:27:42;;;;;;;;;;;2.10;55.90;;;0.15;61.12;101487.03;12247921;19;19915;-89
2023/12/04 10:31:43;;;;;;;;;;;2.20;55.90;;;0.08;60.99;101461.34;12245867;19;19968;-89
2023/12/04 10:35:46;;;;;;;;;;;2.40;55.80;;;0.40;61.16;101494.72;12247312;19;19938;-88
2023/12/04 10:39:50;;;;;;;;;;;2.50;56.10;;;0.49;61.19;101494.72;12246392;19;19919;-88
2023/12/04 10:43:51;;;;;;;;;;;2.60;56.10;;;0.49;61.13;101473.28;12245916;19;20381;-89
2023/12/04 10:47:53;;;;;;;;;;;2.50;56.00;;;0.53;61.02;101462.16;12245664;19;19929;-89
2023/12/04 10:51:57;;;;;;;;;;;2.60;56.00;;;0.60;61.08;101456.16;12244771;19;19922;-89
2023/12/04 10:56:00;;;;;;;;;;;2.90;56.00;;;0.69;61.07;101458.69;12247107;19;19921;-88
2023/12/04 11:00:04;;;;;;;;;;;2.70;56.00;;;0.60;61.17;101425.31;12244519;19;20353;-88
2023/12/04 11:04:10;;;;;;;;;;;2.70;56.20;;;0.81;60.95;101435.53;12242529;19;20384;-89
2023/12/04 11:08:15;;;;;;;;;;;2.80;55.90;;;0.86;60.91;101426.09;12246362;19;19915;-89
2023/12/04 11:12:20;;;;;;;;;;;2.80;56.00;;;1.01;61.16;101434.59;12243684;19;19986;-90
2023/12/04 11:16:37;;;;;;;;;;;2.90;55.90;;;1.10;61.03;101425.09;12246133;19;20008;-89
2023/12/04 11:20:48;;;;;;;;;;;3.00;55.80;;;1.12;60.98;101424.25;12242615;19;19915;-89
2023/12/04 11:24:50;;;;;;;;;;;3.00;55.80;;;1.18;61.21;101417.34;12245881;19;19911;-90
2023/12/04 11:28:53;;;;;;;;;;;3.20;55.80;;;1.18;60.87;101413.94;12243871;19;19935;-88
2023/12/04 11:32:56;;;;;;;;;;;3.30;55.80;;;1.27;61.10;101413.88;12257521;19;20381;-89
2023/12/04 11:36:58;;;;;;;;;;;3.20;55.70;;;1.32;61.13;101413.00;12258731;19;19934;-89
2023/12/04 11:41:00;;;;;;;;;;;3.30;55.70;;;1.38;61.07;101406.97;12254468;19;19974;-89
2023/12/04 11:45:02;;;;;;;;;;;3.30;55.60;;;1.46;61.10;101415.50;12256054;19;20349;-89
2023/12/04 11:49:28;;;;;;;;;;;3.40;55.60;;;1.53;61.11;101413.72;12256341;19;19919;-89
2023/12/04 11:53:30;;;;;;;;;;;3.40;55.60;;;1.51;60.96;101392.28;12256737;19;19919;-89
2023/12/04 11:57:36;;;;;;;;;;;3.40;55.50;;;1.52;61.13;101373.41;12258288;19;19915;-89
2023/12/04 12:01:38;;;;;;;;;;;3.50;55.50;;;1.63;61.02;101381.91;12249987;19;19918;-89
2023/12/04 12:05:40;;;;;;;;;;;3.50;55.50;;;1.67;60.96;101380.16;12256802;19;19918;-89
2023/12/04 12:09:42;;;;;;;;;;;3.60;55.50;;;1.76;61.03;101388.66;12254398;19;19990;-90
2023/12/04 12:13:44;;;;;;;;;;;3.60;55.50;;;1.79;61.08;101377.50;12254291;19;20354;-90
2023/12/04 12:17:45;;;;;;;;;;;3.90;55.60;;;1.75;61.05;101360.34;12254909;19;19918;-91
2023/12/04 12:21:49;;;;;;;;;;;3.70;55.40;;;1.79;60.99;101351.75;12250837;19;19944;-89
2023/12/04 12:25:50;;;;;;;;;;;4.00;55.50;;;1.95;61.20;101357.63;12254393;19;19935;-89
2023/12/04 12:29:52;;;;;;;;;;;4.00;55.40;;;1.87;61.20;101338.81;12252726;19;20330;-89
2023/12/04 12:33:55;;;;;;;;;;;4.10;55.50;;;1.99;60.98;101351.53;12252866;19;19925;-89
2023/12/04 12:37:56;;;;;;;;;;;3.90;55.20;;;1.99;60.98;101347.25;12253363;19;19935;-89
2023/12/04 12:41:58;;;;;;;;;;;3.90;55.30;;;2.01;60.89;101343.81;12249125;19;20338;-89
2023/12/04 12:45:59;;;;;;;;;;;3.90;55.30;;;2.01;61.04;101328.38;12255032;19;19949;-89
2023/12/04 12:50:02;;;;;;;;;;;4.00;55.30;;;1.93;60.99;101307.84;12249833;19;20335;-89
2023/12/04 12:54:04;;;;;;;;;;;4.20;55.40;;;2.17;60.96;101337.63;12253696;19;19915;-89
2023/12/04 12:58:06;;;;;;;;;;;4.00;55.30;;;2.03;61.03;101309.44;12254777;19;19954;-89
2023/12/04 13:02:07;;;;;;;;;;;4.00;55.20;;;2.16;60.99;101330.75;12251175;19;19982;-89
2023/12/04 13:06:09;;;;;;;;;;;4.00;55.00;;;2.09;61.01;101309.38;12254492;19;19950;-89
2023/12/04 13:10:11;;;;;;;;;;;4.00;55.10;;;2.11;60.77;101309.38;12252885;19;20322;-89
2023/12/04 13:14:13;;;;;;;;;;;4.10;55.10;;;2.10;61.01;101305.06;12252950;19;20238;-89
2023/12/04 13:18:15;;;;;;;;;;;4.00;55.10;;;2.16;60.90;101305.88;12252735;19;19918;-89
2023/12/04 13:22:16;;;;;;;;;;;4.20;55.10;;;2.27;60.87;101317.75;12249549;19;19940;-89
2023/12/04 13:26:18;;;;;;;;;;;4.10;55.20;;;2.28;60.92;101311.75;12253662;19;19917;-89
2023/12/04 13:30:19;;;;;;;;;;;4.10;55.10;;;2.18;60.91;101288.66;12250758;19;19915;-89
2023/12/04 13:34:22;;;;;;;;;;;4.10;55.10;;;2.17;60.88;101284.38;12252914;19;19953;-89
2023/12/04 13:38:23;;;;;;;;;;;4.10;55.10;;;2.07;60.96;101246.72;12252196;19;19940;-89
2023/12/04 13:46:47;;;;;;;;;;;4.10;55.20;;;2.31;60.98;101283.38;12248562;19;19914;-89
2023/12/04 13:50:50;;;;;;;;;;;4.10;55.10;;;2.24;60.91;101259.38;12247738;19;19915;-90
2023/12/04 13:54:54;;;;;;;;;;;4.10;55.10;;;2.29;60.66;101262.75;12248281;19;19915;-88
2023/12/04 13:58:56;;;;;;;;;;;4.10;54.90;;;2.33;60.91;101276.47;12250245;19;19919;-90
2023/12/04 14:03:04;;;;;;;;;;;4.10;55.00;;;2.04;60.75;101208.13;12249791;19;19931;-88
2023/12/04 14:07:08;;;;;;;;;;;4.00;55.00;;;2.22;60.75;101238.81;12250136;19;19911;-89
2023/12/04 14:11:11;;;;;;;;;;;4.00;54.80;;;2.21;60.69;101231.09;12247839;19;20253;-89
2023/12/04 14:15:12;;;;;;;;;;;4.00;54.90;;;1.75;60.59;101155.22;12250855;19;20634;-88
2023/12/04 14:19:16;;;;;;;;;;;4.00;55.00;;;1.95;60.75;101182.50;12248935;19;20008;-89
2023/12/04 14:23:18;;;;;;;;;;;4.00;55.10;;;1.96;60.84;101184.19;12248234;19;20337;-89
2023/12/04 14:27:20;;;;;;;;;;;4.20;55.20;;;2.06;60.78;101196.09;12248925;19;19915;-89
2023/12/04 14:31:23;;;;;;;;;;;4.00;55.10;;;2.15;60.77;101211.41;12245932;19;20279;-89
2023/12/04 14:35:24;;;;;;;;;;;4.30;55.20;;;1.91;60.58;101166.19;12249855;19;19914;-89
2023/12/04 14:39:25;;;;;;;;;;;4.40;55.30;;;1.84;60.82;101141.41;12247085;19;19919;-89
2023/12/04 14:43:27;;;;;;;;;;;4.10;55.20;;;2.01;60.62;101172.09;12247689;19;19923;-88
2023/12/04 14:47:28;;;;;;;;;;;4.40;55.30;;;1.64;60.42;101100.47;12247673;19;19915;-88
2023/12/04 14:51:30;;;;;;;;;;;4.10;55.10;;;1.88;60.63;101137.06;12244713;19;19919;-88
2023/12/04 15:05:38;;;;;;;;;;;4.10;55.10;;;1.65;60.66;101091.03;12248562;19;19926;-88
2023/12/04 15:09:48;;;;;;;;;;;4.00;55.10;;;1.90;60.70;101135.34;12256431;19;20274;-88
2023/12/04 15:21:34;;;;;;;;;;;4.00;55.10;;;2.22;60.82;101183.84;12253314;19;19930;-88
2023/12/04 15:25:36;;;;;;;;;;;3.90;55.10;;;1.88;60.39;101119.91;12261913;19;19939;-88
2023/12/04 15:29:38;;;;;;;;;;;4.00;55.10;;;1.85;60.43;101103.66;12255647;19;19943;-89
2023/12/04 15:33:39;;;;;;;;;;;4.00;55.10;;;1.68;60.63;101084.13;12252811;19;19911;-89
2023/12/04 15:37:41;;;;;;;;;;;4.00;55.20;;;1.92;60.39;101108.69;12259402;19;19952;-89
2023/12/04 15:41:42;;;;;;;;;;;4.00;55.20;;;1.82;60.55;101098.53;12252893;19;19915;-88
2023/12/04 15:45:44;;;;;;;;;;;4.20;55.30;;;1.85;60.59;101099.34;12255805;19;19935;-89
2023/12/04 15:49:47;;;;;;;;;;;4.00;55.10;;;1.75;60.52;101075.44;12253348;19;20279;-89
2023/12/04 15:53:50;;;;;;;;;;;4.30;55.20;;;1.84;60.41;101083.94;12259260;19;19923;-89
2023/12/04 15:57:54;;;;;;;;;;;4.00;55.10;;;1.97;60.66;101108.63;12256010;19;19936;-88
2023/12/04 16:01:56;;;;;;;;;;;4.00;55.20;;;1.90;60.38;101086.41;12253755;19;19907;-88
2023/12/04 16:05:57;;;;;;;;;;;4.00;55.20;;;1.74;60.45;101071.16;12256519;19;19918;-88
2023/12/04 16:09:59;;;;;;;;;;;4.00;55.20;;;1.84;60.45;101086.50;12252802;19;19987;-88
2023/12/04 16:14:01;;;;;;;;;;;3.80;55.00;;;1.84;60.45;101073.63;12257601;19;19907;-88
2023/12/04 16:18:02;;;;;;;;;;;4.00;55.10;;;1.80;60.59;101072.81;12253893;19;19918;-88
2023/12/04 16:22:04;;;;;;;;;;;4.00;55.10;;;1.84;60.46;101081.34;12250672;19;19925;-88
2023/12/04 16:26:06;;;;;;;;;;;4.00;55.10;;;1.97;60.59;101088.88;12255678;19;19919;-88
2023/12/04 16:30:08;;;;;;;;;;;4.00;55.10;;;1.83;60.51;101062.44;12254103;19;19918;-88
2023/12/04 16:34:09;;;;;;;;;;;3.90;55.10;;;1.80;60.37;101047.06;12255164;19;19935;-89
2023/12/04 16:38:13;;;;;;;;;;;3.80;55.10;;;1.76;60.50;101048.81;12256118;19;19922;-88
2023/12/04 16:42:15;;;;;;;;;;;4.10;55.20;;;1.67;60.58;101045.50;12248082;19;20289;-88
2023/12/04 16:46:17;;;;;;;;;;;4.30;55.30;;;1.80;60.51;101049.63;12255866;19;19932;-88
2023/12/04 16:50:19;;;;;;;;;;;3.90;55.20;;;1.79;60.36;101053.09;12252044;19;19929;-88
2023/12/04 16:54:21;;;;;;;;;;;3.90;55.20;;;2.07;60.55;101081.03;12253370;19;19922;-88
2023/12/04 16:58:22;;;;;;;;;;;3.70;55.10;;;2.04;60.44;101094.78;12253624;19;19966;-88
2023/12/04 17:02:24;;;;;;;;;;;4.10;55.30;;;1.63;60.53;101021.56;12249626;19;19926;-88
2023/12/04 17:06:28;;;;;;;;;;;4.10;55.30;;;1.71;60.24;101024.88;12254576;19;20524;-88
2023/12/04 17:10:30;;;;;;;;;;;3.90;55.20;;;1.77;60.59;101040.22;12251734;19;19926;-88
2023/12/04 17:14:31;;;;;;;;;;;3.90;55.20;;;1.67;60.46;101018.03;12254650;19;20329;-89
2023/12/04 17:18:33;;;;;;;;;;;4.20;55.30;;;1.64;60.62;100996.66;12252125;19;19927;-88
2023/12/04 17:22:35;;;;;;;;;;;3.90;55.20;;;1.72;60.64;101011.13;12250690;19;19938;-88
2023/12/04 17:26:37;;;;;;;;;;;3.90;55.30;;;1.72;60.54;100998.25;12247418;19;19946;-88
2023/12/04 17:30:38;;;;;;;;;;;3.90;55.30;;;1.65;60.49;100978.63;12249544;19;19934;-88
2023/12/04 17:34:40;;;;;;;;;;;4.00;55.30;;;1.73;60.59;100988.81;12249977;19;19922;-88
2023/12/04 17:38:43;;;;;;;;;;;4.10;55.40;;;1.78;60.46;100999.88;12252138;19;19915;-88
2023/12/04 17:42:45;;;;;;;;;;;4.10;55.30;;;1.74;60.43;101000.81;12247584;19;19926;-88
2023/12/04 17:46:47;;;;;;;;;;;3.90;55.20;;;2.17;60.54;101056.84;12247049;19;19925;-89
2023/12/04 17:50:49;;;;;;;;;;;3.90;55.10;;;2.06;60.50;101054.41;12248491;19;19943;-89
2023/12/04 17:54:50;;;;;;;;;;;3.90;55.20;;;1.85;60.39;101013.53;12249231;19;19970;-89
2023/12/04 17:58:52;;;;;;;;;;;4.10;55.20;;;1.71;60.38;100993.13;12249127;19;19921;-90
2023/12/04 18:02:55;;;;;;;;;;;3.80;55.00;;;1.58;60.42;100977.00;12247000;19;19929;-90
2023/12/04 18:06:58;;;;;;;;;;;3.70;55.00;;;1.59;60.43;100980.44;12249294;19;19927;-90
2023/12/04 18:11:00;;;;;;;;;;;3.80;55.10;;;1.63;60.46;100975.22;12246595;19;19919;-89
2023/12/04 18:15:01;;;;;;;;;;;3.80;55.10;;;1.61;60.54;100979.53;12249230;19;19922;-88
2023/12/04 18:19:03;;;;;;;;;;;3.80;55.10;;;1.46;60.44;100965.16;12248984;19;19918;-88
2023/12/04 18:23:04;;;;;;;;;;;4.00;55.10;;;1.79;60.35;101005.91;12245526;19;19944;-88
2023/12/04 18:27:07;;;;;;;;;;;3.80;55.10;;;1.55;60.29;100967.59;12249341;19;19927;-88
2023/12/04 18:31:09;;;;;;;;;;;3.70;55.10;;;1.67;60.44;101000.03;12245757;19;19914;-89
2023/12/04 18:35:14;;;;;;;;;;;3.70;55.10;;;1.60;60.40;100990.72;12247805;19;19919;-88
2023/12/04 18:39:17;;;;;;;;;;;3.70;55.10;;;1.75;60.61;101023.94;12245884;19;19927;-89
2023/12/04 18:43:18;;;;;;;;;;;3.60;54.90;;;1.51;60.45;100976.25;12246562;19;19943;-88
2023/12/04 18:47:20;;;;;;;;;;;3.70;55.10;;;1.51;60.30;100972.81;12248951;19;20389;-88